createdAt,value
2023-10-02T00:01:08.584Z,2.60
2023-10-02T00:03:41.973Z,2.90
2023-10-02T00:06:11.539Z,2.80
2023-10-02T00:09:06.165Z,2.00
2023-10-02T00:11:37.980Z,2.20
2023-10-02T00:14:24.910Z,2.80
2023-10-02T00:17:06.498Z,2.70
2023-10-02T00:19:38.491Z,2.70
2023-10-02T00:22:39.494Z,2.70
2023-10-02T00:25:21.296Z,2.80
2023-10-02T00:27:53.194Z,2.70
2023-10-02T00:30:38.174Z,2.40
2023-10-02T00:33:06.935Z,2.40
2023-10-02T00:35:52.048Z,2.60
2023-10-02T00:38:20.653Z,2.10
2023-10-02T00:40:48.905Z,2.40
2023-10-02T00:43:35.209Z,2.50
2023-10-02T00:46:05.355Z,2.60
2023-10-02T00:48:35.283Z,2.60
2023-10-02T00:51:08.060Z,2.70
2023-10-02T00:53:47.773Z,2.70
2023-10-02T00:56:30.059Z,2.60
2023-10-02T00:59:02.885Z,2.30
2023-10-02T01:01:33.745Z,2.30
2023-10-02T01:04:11.494Z,2.30
2023-10-02T01:07:06.986Z,2.50
2023-10-02T01:09:35.729Z,2.50
2023-10-02T01:12:04.816Z,2.40
2023-10-02T01:14:51.637Z,2.80
2023-10-02T01:17:22.660Z,2.50
2023-10-02T01:19:56.575Z,2.70
2023-10-02T01:22:28.068Z,2.40
2023-10-02T01:25:16.694Z,3.00
2023-10-02T01:27:52.280Z,2.60
2023-10-02T01:30:23.343Z,2.90
2023-10-02T01:33:12.796Z,2.30
2023-10-02T01:35:50.579Z,2.10
2023-10-02T01:38:48.324Z,2.50
2023-10-02T01:41:16.913Z,2.50
2023-10-02T01:43:46.398Z,2.20
2023-10-02T01:46:20.111Z,2.50
2023-10-02T01:48:52.634Z,2.60
2023-10-02T01:51:23.201Z,2.70
2023-10-02T01:56:21.774Z,2.30
2023-10-02T01:58:50.323Z,2.50
2023-10-02T02:01:22.098Z,2.50
2023-10-02T02:03:52.743Z,2.40
2023-10-02T02:06:24.731Z,2.70
2023-10-02T02:09:03.069Z,2.20
2023-10-02T02:11:31.257Z,3.10
2023-10-02T02:14:05.525Z,2.40
2023-10-02T02:16:36.814Z,2.50
2023-10-02T02:19:06.826Z,2.50
2023-10-02T02:21:36.478Z,2.70
2023-10-02T02:24:04.833Z,2.80
2023-10-02T02:26:34.619Z,2.40
2023-10-02T02:29:02.905Z,2.80
2023-10-02T02:31:33.174Z,2.60
2023-10-02T02:34:04.519Z,2.50
2023-10-02T02:36:37.104Z,2.60
2023-10-02T02:39:17.356Z,2.60
2023-10-02T02:42:11.081Z,2.50
2023-10-02T02:44:47.875Z,2.50
2023-10-02T02:47:21.073Z,2.30
2023-10-02T02:49:59.987Z,2.60
2023-10-02T02:52:29.341Z,2.40
2023-10-02T02:55:14.988Z,2.50
2023-10-02T02:57:47.140Z,2.50
2023-10-02T03:00:33.629Z,2.60
2023-10-02T03:03:03.187Z,2.30
2023-10-02T03:05:39.656Z,2.90
2023-10-02T03:08:09.956Z,2.40
2023-10-02T03:10:42.330Z,2.90
2023-10-02T03:13:17.088Z,2.50
2023-10-02T03:15:50.120Z,2.70
2023-10-02T03:18:32.311Z,2.60
2023-10-02T03:21:22.866Z,2.10
2023-10-02T03:23:55.585Z,2.80
2023-10-02T03:26:36.412Z,2.30
2023-10-02T03:29:07.205Z,2.30
2023-10-02T03:31:38.625Z,2.80
2023-10-02T03:34:27.477Z,2.30
2023-10-02T03:37:10.093Z,2.60
2023-10-02T03:40:02.906Z,2.40
2023-10-02T03:42:32.585Z,2.90
2023-10-02T03:45:04.057Z,2.30
2023-10-02T03:47:35.341Z,2.40
2023-10-02T03:50:08.352Z,2.10
2023-10-02T03:52:36.847Z,2.30
2023-10-02T03:55:19.783Z,3.10
2023-10-02T03:57:56.938Z,2.50
2023-10-02T04:00:28.694Z,2.50
2023-10-02T04:02:59.070Z,2.50
2023-10-02T04:05:34.762Z,2.80
2023-10-02T04:08:24.413Z,2.60
2023-10-02T04:10:58.439Z,2.30
2023-10-02T04:13:34.966Z,2.30
2023-10-02T04:16:25.548Z,2.70
2023-10-02T04:19:04.165Z,2.70
2023-10-02T04:21:34.995Z,2.80
2023-10-02T04:24:09.206Z,2.40
2023-10-02T04:26:37.487Z,2.60
2023-10-02T04:29:43.838Z,2.50
2023-10-02T04:32:20.656Z,2.20
2023-10-02T04:34:52.277Z,2.60
2023-10-02T04:37:24.107Z,2.50
2023-10-02T04:39:59.969Z,2.50
2023-10-02T04:42:30.620Z,2.80
2023-10-02T04:44:58.941Z,2.90
2023-10-02T04:47:29.603Z,2.20
2023-10-02T04:50:05.813Z,2.10
2023-10-02T04:52:56.724Z,2.60
2023-10-02T04:55:26.484Z,2.60
2023-10-02T04:57:56.704Z,2.70
2023-10-02T05:00:34.396Z,2.20
2023-10-02T05:03:20.209Z,2.60
2023-10-02T05:05:50.826Z,3.00
2023-10-02T05:08:30.711Z,2.40
2023-10-02T05:10:59.103Z,2.50
2023-10-02T05:13:46.055Z,3.10
2023-10-02T05:16:14.501Z,2.40
2023-10-02T05:18:46.161Z,2.70
2023-10-02T05:21:18.887Z,2.90
2023-10-02T05:24:01.836Z,2.60
2023-10-02T05:26:37.511Z,2.90
2023-10-02T05:29:10.852Z,2.40
2023-10-02T05:31:43.152Z,2.90
2023-10-02T05:34:14.812Z,2.60
2023-10-02T05:36:57.010Z,2.80
2023-10-02T05:39:54.418Z,3.00
2023-10-02T05:42:22.407Z,3.10
2023-10-02T05:44:51.003Z,2.50
2023-10-02T05:47:19.142Z,2.60
2023-10-02T05:49:51.276Z,2.60
2023-10-02T05:52:22.317Z,2.70
2023-10-02T05:54:55.254Z,2.70
2023-10-02T05:57:24.414Z,2.80
2023-10-02T05:59:59.483Z,2.50
2023-10-02T06:02:29.197Z,2.40
2023-10-02T06:05:09.550Z,2.90
2023-10-02T06:08:01.481Z,2.70
2023-10-02T06:10:29.597Z,2.40
2023-10-02T06:13:07.444Z,2.30
2023-10-02T06:15:49.964Z,2.20
2023-10-02T06:18:29.079Z,2.20
2023-10-02T06:21:04.787Z,2.80
2023-10-02T06:23:39.489Z,2.30
2023-10-02T06:26:11.884Z,2.50
2023-10-02T06:28:40.921Z,2.50
2023-10-02T06:31:09.597Z,2.70
2023-10-02T06:33:38.456Z,2.50
2023-10-02T06:36:10.551Z,2.40
2023-10-02T06:38:39.512Z,3.00
2023-10-02T06:41:14.586Z,2.60
2023-10-02T06:43:42.995Z,2.50
2023-10-02T06:46:11.460Z,2.70
2023-10-02T06:48:45.650Z,2.70
2023-10-02T06:51:14.929Z,2.70
2023-10-02T06:53:44.617Z,2.70
2023-10-02T06:56:14.944Z,2.70
2023-10-02T06:58:58.306Z,2.40
2023-10-02T07:01:29.829Z,2.90
2023-10-02T07:04:10.939Z,2.60
2023-10-02T07:06:42.676Z,2.80
2023-10-02T07:09:14.233Z,2.30
2023-10-02T07:11:46.696Z,2.80
2023-10-02T07:14:16.288Z,2.70
2023-10-02T07:16:48.936Z,2.20
2023-10-02T07:19:28.809Z,2.20
2023-10-02T07:21:56.880Z,2.50
2023-10-02T07:24:30.157Z,2.20
2023-10-02T07:27:00.847Z,2.30
2023-10-02T07:29:39.860Z,2.30
2023-10-02T07:32:09.593Z,2.00
2023-10-02T07:34:39.801Z,2.40
2023-10-02T07:37:08.168Z,2.30
2023-10-02T07:39:39.935Z,2.10
2023-10-02T07:42:11.558Z,2.10
2023-10-02T07:44:41.133Z,2.10
2023-10-02T07:47:20.359Z,2.60
2023-10-02T07:49:53.450Z,2.30
2023-10-02T07:52:28.492Z,2.30
2023-10-02T07:55:00.927Z,1.90
2023-10-02T07:57:34.015Z,2.40
2023-10-02T08:00:28.341Z,2.20
2023-10-02T08:02:56.873Z,2.30
2023-10-02T08:05:26.980Z,2.70
2023-10-02T08:08:10.157Z,2.20
2023-10-02T08:10:50.914Z,2.60
2023-10-02T08:13:33.598Z,2.50
2023-10-02T08:16:13.349Z,2.10
2023-10-02T08:18:59.358Z,2.30
2023-10-02T08:21:37.696Z,2.30
2023-10-02T08:24:07.061Z,2.10
2023-10-02T08:26:45.174Z,1.90
2023-10-02T08:29:16.228Z,1.80
2023-10-02T08:31:45.608Z,1.90
2023-10-02T08:34:20.898Z,1.90
2023-10-02T08:37:06.481Z,2.00
2023-10-02T08:39:42.447Z,2.10
2023-10-02T08:42:13.283Z,2.30
2023-10-02T08:44:43.245Z,2.10
2023-10-02T08:47:14.213Z,1.80
2023-10-02T08:49:42.757Z,1.90
2023-10-02T08:52:15.330Z,2.50
2023-10-02T08:54:46.091Z,1.80
2023-10-02T08:57:14.190Z,1.80
2023-10-02T08:59:43.148Z,1.70
2023-10-02T09:02:15.679Z,1.70
2023-10-02T09:04:57.290Z,1.80
2023-10-02T09:07:45.805Z,1.90
2023-10-02T09:10:26.909Z,2.10
2023-10-02T09:13:26.003Z,2.00
2023-10-02T09:15:55.356Z,2.00
2023-10-02T09:19:00.600Z,1.80
2023-10-02T09:21:40.965Z,1.60
2023-10-02T09:24:20.565Z,1.90
2023-10-02T09:26:49.484Z,2.00
2023-10-02T09:29:17.820Z,1.80
2023-10-02T09:31:48.469Z,1.90
2023-10-02T09:34:45.493Z,2.00
2023-10-02T09:37:18.025Z,1.70
2023-10-02T09:40:05.471Z,1.80
2023-10-02T09:42:35.341Z,1.70
2023-10-02T09:45:10.731Z,1.90
2023-10-02T09:47:51.100Z,2.00
2023-10-02T09:50:26.561Z,1.90
2023-10-02T09:53:00.440Z,2.00
2023-10-02T09:55:43.785Z,1.80
2023-10-02T09:58:29.811Z,1.80
2023-10-02T10:01:28.310Z,2.10
2023-10-02T10:03:58.185Z,1.50
2023-10-02T10:06:29.721Z,2.00
2023-10-02T10:09:16.268Z,1.70
2023-10-02T10:11:47.154Z,1.90
2023-10-02T10:14:40.070Z,1.60
2023-10-02T10:17:48.849Z,1.90
2023-10-02T10:20:24.203Z,1.60
2023-10-02T10:22:52.783Z,2.00
2023-10-02T10:25:23.892Z,2.00
2023-10-02T10:27:56.676Z,1.70
2023-10-02T10:30:36.602Z,2.10
2023-10-02T10:33:11.299Z,1.70
2023-10-02T10:35:51.072Z,1.80
2023-10-02T10:38:22.828Z,1.60
2023-10-02T10:41:00.935Z,1.70
2023-10-02T10:43:48.385Z,1.70
2023-10-02T10:46:20.405Z,1.60
2023-10-02T10:49:08.834Z,1.70
2023-10-02T10:51:40.844Z,1.70
2023-10-02T10:54:17.476Z,1.90
2023-10-02T10:56:59.370Z,1.90
2023-10-02T10:59:34.109Z,1.70
2023-10-02T11:02:18.263Z,1.60
2023-10-02T11:04:50.566Z,1.80
2023-10-02T11:07:26.858Z,1.40
2023-10-02T11:10:20.747Z,1.80
2023-10-02T11:12:57.704Z,1.80
2023-10-02T11:15:47.895Z,1.80
2023-10-02T11:18:20.302Z,2.00
2023-10-02T11:20:53.289Z,1.50
2023-10-02T11:23:30.668Z,1.60
2023-10-02T11:25:59.958Z,1.40
2023-10-02T11:28:37.174Z,1.50
2023-10-02T11:31:34.148Z,1.80
2023-10-02T11:34:25.797Z,1.70
2023-10-02T11:36:55.157Z,1.50
2023-10-02T11:39:29.177Z,1.70
2023-10-02T11:41:57.779Z,1.60
2023-10-02T11:44:27.675Z,1.60
2023-10-02T11:49:24.427Z,1.40
2023-10-02T11:51:52.610Z,1.80
2023-10-02T11:54:20.761Z,1.70
2023-10-02T11:56:48.870Z,1.30
2023-10-02T11:59:16.994Z,1.60
2023-10-02T12:01:46.778Z,1.60
2023-10-02T12:04:16.215Z,1.70
2023-10-02T12:06:44.825Z,1.80
2023-10-02T12:09:19.612Z,2.00
2023-10-02T12:11:48.164Z,1.80
2023-10-02T12:14:16.307Z,1.80
2023-10-02T12:16:44.713Z,1.50
2023-10-02T12:19:16.573Z,1.60
2023-10-02T12:21:58.097Z,1.60
2023-10-02T12:24:36.952Z,1.60
2023-10-02T12:27:05.851Z,1.50
2023-10-02T12:29:35.265Z,1.80
2023-10-02T12:32:03.415Z,1.90
2023-10-02T12:34:32.468Z,1.50
2023-10-02T12:37:01.939Z,1.80
2023-10-02T12:39:30.653Z,1.60
2023-10-02T12:41:58.882Z,2.00
2023-10-02T12:44:27.331Z,1.80
2023-10-02T12:46:55.506Z,1.80
2023-10-02T12:49:23.716Z,1.80
2023-10-02T12:51:52.125Z,1.80
2023-10-02T12:54:20.750Z,1.60
2023-10-02T12:56:49.128Z,2.00
2023-10-02T12:59:34.773Z,1.90
2023-10-02T13:02:04.180Z,1.70
2023-10-02T13:04:33.370Z,2.00
2023-10-02T13:07:03.459Z,1.80
2023-10-02T13:12:02.597Z,1.70
2023-10-02T13:14:32.126Z,1.40
2023-10-02T13:17:01.188Z,1.50
2023-10-02T13:19:29.906Z,1.60
2023-10-02T13:21:59.378Z,1.60
2023-10-02T13:24:29.769Z,2.00
2023-10-02T13:26:57.831Z,1.60
2023-10-02T13:29:25.977Z,1.70
2023-10-02T13:31:54.215Z,1.70
2023-10-02T13:34:22.598Z,2.20
2023-10-02T13:36:50.950Z,1.90
2023-10-02T13:39:19.705Z,1.60
2023-10-02T13:41:48.562Z,1.60
2023-10-02T13:44:19.253Z,1.80
2023-10-02T13:46:50.166Z,1.50
2023-10-02T13:49:20.934Z,1.60
2023-10-02T13:51:49.280Z,2.10
2023-10-02T13:54:17.434Z,1.60
2023-10-02T13:56:46.974Z,1.50
2023-10-02T13:59:16.204Z,1.80
2023-10-02T14:01:47.757Z,1.30
2023-10-02T14:04:16.286Z,1.80
2023-10-02T14:06:44.491Z,1.60
2023-10-02T14:09:15.002Z,1.60
2023-10-02T14:11:43.802Z,1.70
2023-10-02T14:14:11.946Z,1.60
2023-10-02T14:16:42.903Z,1.50
2023-10-02T14:19:11.405Z,1.70
2023-10-02T14:21:39.489Z,1.80
2023-10-02T14:24:08.973Z,1.70
2023-10-02T14:26:38.011Z,1.80
2023-10-02T14:29:07.628Z,1.50
2023-10-02T14:31:35.841Z,1.70
2023-10-02T14:34:08.273Z,1.60
2023-10-02T14:36:36.514Z,2.00
2023-10-02T14:39:05.626Z,1.90
2023-10-02T14:41:34.096Z,1.60
2023-10-02T14:44:02.246Z,1.70
2023-10-02T14:46:30.486Z,2.00
2023-10-02T14:48:58.688Z,1.50
2023-10-02T14:51:26.873Z,1.60
2023-10-02T14:53:54.990Z,1.70
2023-10-02T14:56:23.256Z,2.00
2023-10-02T14:58:52.161Z,1.80
2023-10-02T15:01:21.296Z,1.80
2023-10-02T15:03:50.320Z,1.60
2023-10-02T15:06:18.906Z,1.70
2023-10-02T15:08:47.063Z,1.80
2023-10-02T15:11:16.587Z,1.80
2023-10-02T15:13:46.866Z,1.80
2023-10-02T15:18:49.502Z,2.00
2023-10-02T15:21:18.469Z,2.10
2023-10-02T15:23:47.277Z,1.70
2023-10-02T15:26:17.164Z,1.50
2023-10-02T15:28:45.526Z,1.90
2023-10-02T15:31:15.576Z,2.40
2023-10-02T15:36:16.993Z,1.80
2023-10-02T15:38:49.453Z,1.90
2023-10-02T15:41:28.040Z,2.00
2023-10-02T15:43:59.733Z,2.10
2023-10-02T15:46:28.307Z,1.90
2023-10-02T15:48:56.639Z,2.30
2023-10-02T15:51:26.207Z,1.90
2023-10-02T15:53:54.743Z,2.00
2023-10-02T15:56:25.729Z,1.90
2023-10-02T15:58:55.817Z,2.00
2023-10-02T16:01:24.252Z,2.00
2023-10-02T16:03:52.668Z,2.30
2023-10-02T16:06:22.538Z,2.10
2023-10-02T16:08:52.234Z,2.70
2023-10-02T16:11:22.169Z,2.30
2023-10-02T16:13:53.757Z,2.40
2023-10-02T16:16:25.828Z,2.70
2023-10-02T16:18:54.083Z,2.60
2023-10-02T16:21:23.124Z,2.60
2023-10-02T16:23:51.939Z,2.80
2023-10-02T16:26:24.264Z,2.30
2023-10-02T16:28:53.082Z,2.60
2023-10-02T16:31:26.726Z,2.70
2023-10-02T16:33:55.129Z,2.50
2023-10-02T16:36:33.777Z,2.60
2023-10-02T16:39:06.608Z,2.30
2023-10-02T16:41:37.076Z,2.40
2023-10-02T16:44:06.703Z,2.40
2023-10-02T16:46:37.048Z,2.60
2023-10-02T16:49:06.405Z,2.70
2023-10-02T16:51:34.465Z,2.50
2023-10-02T16:54:02.746Z,2.90
2023-10-02T16:56:31.078Z,2.80
2023-10-02T16:58:59.659Z,2.50
2023-10-02T17:01:28.146Z,2.50
2023-10-02T17:03:56.363Z,2.60
2023-10-02T17:06:26.448Z,2.60
2023-10-02T17:08:55.626Z,2.80
2023-10-02T17:11:26.840Z,2.70
2023-10-02T17:13:55.612Z,2.80
2023-10-02T17:16:23.707Z,3.20
2023-10-02T17:18:51.726Z,2.80
2023-10-02T17:21:27.481Z,3.40
2023-10-02T17:23:55.554Z,3.00
2023-10-02T17:26:23.922Z,3.10
2023-10-02T17:28:52.129Z,3.10
2023-10-02T17:31:22.555Z,3.30
2023-10-02T17:33:50.724Z,2.80
2023-10-02T17:36:18.779Z,3.10
2023-10-02T17:38:47.007Z,4.20
2023-10-02T17:41:15.493Z,3.90
2023-10-02T17:43:45.856Z,3.80
2023-10-02T17:46:13.963Z,3.80
2023-10-02T17:48:42.080Z,3.50
2023-10-02T17:51:10.118Z,3.90
2023-10-02T17:53:38.289Z,3.90
2023-10-02T17:56:09.720Z,4.70
2023-10-02T17:58:38.056Z,3.30
2023-10-02T18:01:06.271Z,4.40
2023-10-02T18:03:34.602Z,3.70
2023-10-02T18:06:02.977Z,4.70
2023-10-02T18:08:31.457Z,4.10
2023-10-02T18:10:59.642Z,3.70
2023-10-02T18:13:27.798Z,4.10
2023-10-02T18:15:58.365Z,3.80
2023-10-02T18:18:26.761Z,3.70
2023-10-02T18:20:54.952Z,3.40
2023-10-02T18:23:23.241Z,4.10
2023-10-02T18:25:57.168Z,3.40
2023-10-02T18:28:26.034Z,3.30
2023-10-02T18:30:55.825Z,3.50
2023-10-02T18:33:24.301Z,3.80
2023-10-02T18:35:52.723Z,3.30
2023-10-02T18:38:21.057Z,3.60
2023-10-02T18:40:49.309Z,3.60
2023-10-02T18:43:17.484Z,3.90
2023-10-02T18:45:45.894Z,3.90
2023-10-02T18:48:14.279Z,4.00
2023-10-02T18:50:42.676Z,3.50
2023-10-02T18:53:10.848Z,3.50
2023-10-02T18:55:40.441Z,3.60
2023-10-02T18:58:08.790Z,3.40
2023-10-02T19:00:36.938Z,3.40
2023-10-02T19:03:06.345Z,3.70
2023-10-02T19:05:38.195Z,3.20
2023-10-02T19:08:06.461Z,3.60
2023-10-02T19:10:34.886Z,3.00
2023-10-02T19:13:04.208Z,3.00
2023-10-02T19:15:32.459Z,3.20
2023-10-02T19:18:00.713Z,3.10
2023-10-02T19:20:29.824Z,3.10
2023-10-02T19:22:57.920Z,3.00
2023-10-02T19:25:25.995Z,3.00
2023-10-02T19:27:54.141Z,3.60
2023-10-02T19:30:22.289Z,3.40
2023-10-02T19:32:50.492Z,3.10
2023-10-02T19:35:18.830Z,3.20
2023-10-02T19:37:47.522Z,3.10
2023-10-02T19:40:17.131Z,3.50
2023-10-02T19:42:45.458Z,3.70
2023-10-02T19:45:13.590Z,3.40
2023-10-02T19:47:44.802Z,3.50
2023-10-02T19:50:13.266Z,3.60
2023-10-02T19:52:43.028Z,3.10
2023-10-02T19:55:12.325Z,3.30
2023-10-02T19:57:41.283Z,3.30
2023-10-02T20:00:12.108Z,3.60
2023-10-02T20:02:44.129Z,3.40
2023-10-02T20:05:16.648Z,3.90
2023-10-02T20:07:45.422Z,3.40
2023-10-02T20:10:14.174Z,3.50
2023-10-02T20:12:49.411Z,3.40
2023-10-02T20:15:17.927Z,3.40
2023-10-02T20:17:46.188Z,3.80
2023-10-02T20:20:15.269Z,3.50
2023-10-02T20:22:44.374Z,3.80
2023-10-02T20:25:13.451Z,3.50
2023-10-02T20:27:41.951Z,3.60
2023-10-02T20:30:10.501Z,3.50
2023-10-02T20:32:40.087Z,3.80
2023-10-02T20:35:08.810Z,3.50
2023-10-02T20:37:37.369Z,3.50
2023-10-02T20:40:08.013Z,3.60
2023-10-02T20:45:04.720Z,3.40
2023-10-02T20:47:32.876Z,3.30
2023-10-02T20:50:01.047Z,3.20
2023-10-02T20:52:29.494Z,3.80
2023-10-02T20:54:57.811Z,3.50
2023-10-02T20:57:27.420Z,3.80
2023-10-02T20:59:58.472Z,3.70
2023-10-02T21:02:26.941Z,3.30
2023-10-02T21:04:58.147Z,3.50
2023-10-02T21:07:27.153Z,3.50
2023-10-02T21:09:55.300Z,3.20
2023-10-02T21:12:23.375Z,3.30
2023-10-02T21:14:52.984Z,3.50
2023-10-02T21:17:21.270Z,3.80
2023-10-02T21:19:49.511Z,3.30
2023-10-02T21:22:17.700Z,3.20
2023-10-02T21:24:45.957Z,3.10
2023-10-02T21:27:13.992Z,3.60
2023-10-02T21:29:42.209Z,3.50
2023-10-02T21:32:10.410Z,3.60
2023-10-02T21:34:38.605Z,3.30
2023-10-02T21:37:07.832Z,3.50
2023-10-02T21:39:35.932Z,3.50
2023-10-02T21:42:04.118Z,3.40
2023-10-02T21:44:35.860Z,3.60
2023-10-02T21:47:04.390Z,3.30
2023-10-02T21:49:32.668Z,3.30
2023-10-02T21:52:00.812Z,3.10
2023-10-02T21:54:29.234Z,3.30
2023-10-02T21:56:57.337Z,2.80
2023-10-02T21:59:25.863Z,3.50
2023-10-02T22:01:53.987Z,3.50
2023-10-02T22:04:23.734Z,3.30
2023-10-02T22:06:52.117Z,3.00
2023-10-02T22:09:20.237Z,3.60
2023-10-02T22:11:48.836Z,3.30
2023-10-02T22:14:18.302Z,3.60
2023-10-02T22:16:46.491Z,4.00
2023-10-02T22:19:15.749Z,3.30
2023-10-02T22:22:02.255Z,3.50
2023-10-02T22:24:30.934Z,3.30
2023-10-02T22:26:59.415Z,3.10
2023-10-02T22:29:27.748Z,3.40
2023-10-02T22:31:55.924Z,3.60
2023-10-02T22:34:38.863Z,3.30
2023-10-02T22:37:15.024Z,3.70
2023-10-02T22:39:43.500Z,3.50
2023-10-02T22:42:12.749Z,3.80
2023-10-02T22:44:42.016Z,3.20
2023-10-02T22:47:10.233Z,3.50
2023-10-02T22:49:38.348Z,2.90
2023-10-02T22:52:06.955Z,3.50
2023-10-02T22:54:35.053Z,3.60
2023-10-02T22:57:05.025Z,3.40
2023-10-02T22:59:33.143Z,3.40
2023-10-02T23:02:04.996Z,3.20
2023-10-02T23:04:36.382Z,3.10
2023-10-02T23:07:05.716Z,3.40
2023-10-02T23:09:35.987Z,3.00
2023-10-02T23:12:10.168Z,3.50
2023-10-02T23:14:38.366Z,3.20
2023-10-02T23:17:10.137Z,3.10
2023-10-02T23:19:42.000Z,3.80
2023-10-02T23:22:10.187Z,3.30
2023-10-02T23:24:38.220Z,3.20
2023-10-02T23:27:07.442Z,3.60
2023-10-02T23:29:36.386Z,3.00
2023-10-02T23:32:06.087Z,3.50
2023-10-02T23:34:37.171Z,3.40
2023-10-02T23:37:06.697Z,3.10
2023-10-02T23:39:35.273Z,3.30
2023-10-02T23:42:03.972Z,3.10
2023-10-02T23:44:34.042Z,3.00
2023-10-02T23:47:02.158Z,3.50
2023-10-02T23:49:30.947Z,3.50
2023-10-02T23:52:06.504Z,2.80
2023-10-02T23:54:38.309Z,3.10
2023-10-02T23:57:07.345Z,3.10
2023-10-02T23:59:35.390Z,3.40
